Time;durP1;ratioP1;P1;durP2;ratioP2;P2;SDS_P1;SDS_P2;PMS_P1;PMS_P2;Temp;Humidity;BMP_temperature;BMP_pressure;BME280_temperature;BME280_humidity;BME280_pressure;Samples;Min_cycle;Max_cycle;Signal;HPM_P1;HPM_P2
2022/10/27 00:01:22;;;;;;;10.27;9.25;;;;;;;10.71;96.14;101731.31;7397355;19;20031;-72
2022/10/27 00:03:52;;;;;;;13.80;9.45;;;;;;;10.69;96.15;101733.94;7398940;19;20090;-72
2022/10/27 00:06:23;;;;;;;10.18;9.10;;;;;;;10.68;96.49;101736.56;7398598;19;20021;-72
2022/10/27 00:08:52;;;;;;;11.27;9.35;;;;;;;10.67;96.42;101746.19;7398475;19;20544;-72
2022/10/27 00:11:21;;;;;;;12.18;9.00;;;;;;;10.66;96.94;101749.69;7397102;19;20018;-73
2022/10/27 00:13:50;;;;;;;15.27;9.90;;;;;;;10.66;97.03;101751.47;7398710;19;20026;-73
2022/10/27 00:16:18;;;;;;;13.07;10.10;;;;;;;10.66;96.74;101751.47;7397977;19;20078;-73
2022/10/27 00:18:47;;;;;;;13.13;10.00;;;;;;;10.65;96.94;101750.56;7398028;19;20548;-72
2022/10/27 00:21:17;;;;;;;17.67;9.73;;;;;;;10.67;96.84;101758.47;7397222;19;20094;-73
2022/10/27 00:23:50;;;;;;;14.75;9.18;;;;;;;10.65;97.29;101763.69;7398625;19;20070;-73
2022/10/27 00:26:20;;;;;;;14.25;9.98;;;;;;;10.68;97.74;101768.06;7398600;19;20025;-73
2022/10/27 00:28:49;;;;;;;13.02;9.93;;;;;;;10.67;97.30;101767.19;7398307;19;20085;-73
2022/10/27 00:31:21;;;;;;;12.40;9.65;;;;;;;10.70;97.57;101766.31;7396586;19;20031;-73
2022/10/27 00:33:51;;;;;;;14.43;10.13;;;;;;;10.71;98.23;101781.16;7398410;19;20086;-73
2022/10/27 00:36:21;;;;;;;12.98;9.68;;;;;;;10.72;97.99;101777.66;7397854;19;20018;-70
2022/10/27 00:38:55;;;;;;;13.63;9.15;;;;;;;10.72;97.91;101775.03;7396532;19;20078;-68
2022/10/27 00:41:27;;;;;;;15.13;9.80;;;;;;;10.74;98.31;101778.50;7397192;19;20419;-70
2022/10/27 00:43:57;;;;;;;18.50;10.48;;;;;;;10.74;98.48;101779.41;7398117;19;20097;-70
2022/10/27 00:46:33;;;;;;;15.57;10.00;;;;;;;10.76;98.49;101779.38;7398016;19;20014;-68
2022/10/27 00:49:07;;;;;;;18.35;9.75;;;;;;;10.76;98.07;101780.25;7397909;19;20070;-68
2022/10/27 00:51:37;;;;;;;12.95;9.35;;;;;;;10.77;97.81;101786.38;7396219;19;20073;-68
2022/10/27 00:54:08;;;;;;;13.07;9.75;;;;;;;10.75;97.66;101786.41;7397240;19;20078;-68
2022/10/27 00:56:38;;;;;;;13.73;10.32;;;;;;;10.76;98.19;101789.88;7396232;19;20091;-68
2022/10/27 00:59:07;;;;;;;14.00;9.75;;;;;;;10.76;97.91;101789.88;7394957;19;20420;-70
2022/10/27 01:01:37;;;;;;;13.48;9.45;;;;;;;10.75;98.13;101794.28;7395451;19;20018;-70
2022/10/27 01:04:06;;;;;;;11.15;9.75;;;;;;;10.75;97.76;101794.28;7395283;19;20070;-70
2022/10/27 01:06:37;;;;;;;14.82;11.00;;;;;;;10.75;97.79;101791.66;7395328;19;20035;-71
2022/10/27 01:09:10;;;;;;;12.43;9.93;;;;;;;10.75;98.37;101794.28;7397253;19;20082;-70
2022/10/27 01:11:38;;;;;;;15.50;10.32;;;;;;;10.75;98.06;101793.38;7395076;19;20089;-70
2022/10/27 01:14:07;;;;;;;19.55;10.32;;;;;;;10.75;98.68;101798.63;7396837;19;20540;-69
2022/10/27 01:16:42;;;;;;;13.85;10.25;;;;;;;10.76;98.99;101803.00;7396080;19;20521;-69
2022/10/27 01:19:42;;;;;;;15.32;10.73;;;;;;;10.77;99.05;101804.75;7394791;19;20086;-70
2022/10/27 01:22:16;;;;;;;17.88;10.68;;;;;;;10.75;98.60;101806.50;7394790;19;20098;-70
2022/10/27 01:24:59;;;;;;;16.67;10.57;;;;;;;10.76;99.06;101801.25;7396802;19;20078;-69
2022/10/27 01:28:08;;;;;;;14.75;10.90;;;;;;;10.77;99.39;101802.13;7396683;19;20090;-69
2022/10/27 01:30:52;;;;;;;19.73;10.50;;;;;;;10.79;99.86;101810.00;7392818;19;20060;-69
2022/10/27 01:33:26;;;;;;;16.10;10.95;;;;;;;10.80;100.00;101807.34;7394856;19;20078;-69
2022/10/27 01:36:00;;;;;;;12.63;10.70;;;;;;;10.81;100.00;101801.22;7395674;19;20432;-70
2022/10/27 01:38:32;;;;;;;20.98;11.45;;;;;;;10.86;99.75;101803.84;7394814;19;20094;-69
2022/10/27 01:41:06;;;;;;;15.95;11.27;;;;;;;10.87;99.08;101809.06;7394373;19;20022;-69
2022/10/27 01:43:36;;;;;;;12.57;10.50;;;;;;;10.85;99.30;101808.19;7395611;19;20387;-70
2022/10/27 01:46:11;;;;;;;15.88;10.27;;;;;;;10.83;98.50;101807.34;7395253;19;20082;-70
2022/10/27 01:48:40;;;;;;;17.23;10.52;;;;;;;10.81;98.66;101803.84;7396051;19;20082;-70
2022/10/27 01:51:09;;;;;;;17.13;11.00;;;;;;;10.80;98.98;101809.13;7394164;19;20035;-70
2022/10/27 01:53:43;;;;;;;14.70;10.75;;;;;;;10.77;99.06;101810.00;7393729;19;20081;-70
2022/10/27 01:56:39;;;;;;;17.13;11.70;;;;;;;10.75;99.22;101817.91;7394925;19;20090;-70
2022/10/27 01:59:30;;;;;;;14.20;10.70;;;;;;;10.73;99.04;101816.16;7393429;19;20082;-70
2022/10/27 02:02:12;;;;;;;22.73;11.80;;;;;;;10.71;98.96;101823.16;7393755;19;20022;-70
2022/10/27 02:04:49;;;;;;;17.00;11.38;;;;;;;10.69;98.87;101825.81;7395620;19;20018;-70
2022/10/27 02:07:25;;;;;;;20.13;11.63;;;;;;;10.67;99.11;101824.06;7395410;19;20079;-70
2022/10/27 02:09:58;;;;;;;18.50;11.60;;;;;;;10.67;98.81;101829.31;7395563;19;20085;-70
2022/10/27 02:12:31;;;;;;;18.83;11.23;;;;;;;10.65;98.73;101821.44;7395054;19;20090;-68
2022/10/27 02:15:02;;;;;;;16.23;12.80;;;;;;;10.65;98.75;101825.81;7395471;19;20078;-70
2022/10/27 02:17:39;;;;;;;19.00;11.32;;;;;;;10.65;98.55;101828.44;7398336;19;20458;-71
2022/10/27 02:20:15;;;;;;;19.33;12.13;;;;;;;10.63;98.38;101823.22;7402872;19;20086;-71
2022/10/27 02:22:45;;;;;;;17.75;12.25;;;;;;;10.64;98.37;101824.97;7399714;19;20023;-70
2022/10/27 02:25:14;;;;;;;20.92;12.50;;;;;;;10.63;98.19;101822.31;7402249;19;20074;-70
2022/10/27 02:27:46;;;;;;;20.45;12.35;;;;;;;10.64;98.02;101824.06;7399736;19;20438;-70
2022/10/27 02:30:16;;;;;;;19.95;12.45;;;;;;;10.63;98.10;101822.31;7400595;19;20022;-68
2022/10/27 02:32:48;;;;;;;16.38;12.30;;;;;;;10.62;98.07;101828.47;7401892;19;20075;-69
2022/10/27 02:35:18;;;;;;;17.50;13.68;;;;;;;10.62;98.16;101831.09;7401588;19;20018;-70
2022/10/27 02:37:48;;;;;;;21.35;13.27;;;;;;;10.60;98.11;101833.69;7400576;19;20022;-70
2022/10/27 02:40:16;;;;;;;23.33;13.25;;;;;;;10.59;98.05;101839.84;7400866;19;20431;-68
2022/10/27 02:42:44;;;;;;;19.80;13.88;;;;;;;10.57;98.26;101842.47;7401886;19;20086;-69
2022/10/27 02:45:13;;;;;;;24.52;14.27;;;;;;;10.58;98.19;101849.47;7401529;19;20018;-69
2022/10/27 02:47:41;;;;;;;20.88;14.68;;;;;;;10.54;98.27;101845.13;7398404;19;20010;-69
2022/10/27 02:50:12;;;;;;;24.70;17.52;;;;;;;10.53;98.83;101845.13;7401129;19;20078;-68
2022/10/27 02:52:44;;;;;;;24.48;16.30;;;;;;;10.51;98.75;101842.47;7401625;19;20022;-70
2022/10/27 02:55:12;;;;;;;26.67;16.63;;;;;;;10.48;98.59;101842.50;7398852;19;20078;-70
2022/10/27 02:57:41;;;;;;;25.67;18.40;;;;;;;10.47;98.81;101840.75;7398830;19;20082;-70
2022/10/27 03:00:10;;;;;;;25.77;17.33;;;;;;;10.46;98.60;101844.25;7400296;19;20078;-69
2022/10/27 03:02:39;;;;;;;31.02;18.20;;;;;;;10.45;98.50;101852.13;7400900;19;20078;-70
2022/10/27 03:05:08;;;;;;;31.63;19.27;;;;;;;10.42;98.41;101846.00;7400938;19;20078;-70
2022/10/27 03:07:39;;;;;;;29.25;18.42;;;;;;;10.44;98.67;101853.91;7400741;19;20035;-70
2022/10/27 03:10:08;;;;;;;27.58;18.52;;;;;;;10.41;98.54;101843.41;7400186;19;20579;-69
2022/10/27 03:12:37;;;;;;;34.35;18.45;;;;;;;10.42;98.47;101850.41;7398050;19;20019;-70
2022/10/27 03:15:07;;;;;;;29.88;18.27;;;;;;;10.39;98.50;101856.53;7400647;19;20086;-70
2022/10/27 03:17:36;;;;;;;25.48;18.17;;;;;;;10.39;98.37;101856.53;7399643;19;20086;-70
2022/10/27 03:20:04;;;;;;;33.85;19.20;;;;;;;10.39;98.67;101861.78;7397417;19;20439;-70
2022/10/27 03:22:32;;;;;;;28.20;19.83;;;;;;;10.36;98.42;101853.94;7400348;19;20018;-70
2022/10/27 03:25:03;;;;;;;32.38;21.27;;;;;;;10.37;98.55;101860.03;7397778;19;20074;-70
2022/10/27 03:27:32;;;;;;;29.15;19.52;;;;;;;10.36;98.53;101860.91;7399273;19;20081;-70
2022/10/27 03:30:01;;;;;;;29.15;20.33;;;;;;;10.34;98.47;101867.91;7399881;19;20015;-69
2022/10/27 03:32:29;;;;;;;31.00;19.73;;;;;;;10.33;98.64;101871.38;7399346;19;20082;-70
2022/10/27 03:34:58;;;;;;;35.90;20.35;;;;;;;10.31;98.65;101874.00;7399401;19;20019;-70
2022/10/27 03:37:26;;;;;;;29.60;20.00;;;;;;;10.28;98.62;101874.88;7399393;19;20036;-70
2022/10/27 03:39:55;;;;;;;31.40;19.23;;;;;;;10.28;98.48;101881.88;7396654;19;20423;-70
2022/10/27 03:42:26;;;;;;;31.00;21.35;;;;;;;10.25;98.73;101882.75;7396485;19;20074;-69
2022/10/27 03:44:54;;;;;;;28.80;20.25;;;;;;;10.24;98.71;101880.16;7396777;19;20427;-69
2022/10/27 03:47:23;;;;;;;29.52;19.50;;;;;;;10.24;98.63;101882.78;7396691;19;20028;-69
2022/10/27 03:49:51;;;;;;;31.77;20.52;;;;;;;10.22;98.79;101880.16;7399376;19;20014;-69
2022/10/27 03:52:21;;;;;;;32.05;20.10;;;;;;;10.20;98.83;101888.91;7396472;19;20074;-70
2022/10/27 03:54:49;;;;;;;33.72;20.40;;;;;;;10.20;98.79;101895.00;7398635;19;20014;-69
2022/10/27 03:57:18;;;;;;;32.72;19.65;;;;;;;10.20;98.87;101896.78;7396886;19;20015;-69
2022/10/27 03:59:49;;;;;;;34.15;20.42;;;;;;;10.18;98.91;101894.13;7396251;19;20018;-69
2022/10/27 04:02:17;;;;;;;32.25;21.85;;;;;;;10.17;99.19;101892.38;7395579;19;20086;-70
2022/10/27 04:04:46;;;;;;;30.58;20.35;;;;;;;10.17;98.96;101896.75;7398244;19;20014;-69
2022/10/27 04:07:14;;;;;;;37.95;20.98;;;;;;;10.15;99.04;101902.03;7398659;19;20026;-69
2022/10/27 04:09:43;;;;;;;35.15;21.17;;;;;;;10.16;99.12;101908.13;7398439;19;20027;-70
2022/10/27 04:12:11;;;;;;;34.03;20.40;;;;;;;10.12;99.22;101899.38;7396389;19;20071;-70
2022/10/27 04:14:40;;;;;;;31.77;21.38;;;;;;;10.14;99.45;101913.38;7398119;19;20390;-70
2022/10/27 04:17:11;;;;;;;31.88;20.73;;;;;;;10.14;99.55;101909.91;7397889;19;20019;-69
2022/10/27 04:19:39;;;;;;;29.27;19.50;;;;;;;10.11;100.00;101908.16;7396775;19;20018;-70
2022/10/27 04:22:08;;;;;;;29.35;19.55;;;;;;;10.11;100.00;101918.66;7396021;19;20035;-69
2022/10/27 04:24:39;;;;;;;28.42;19.98;;;;;;;10.10;100.00;101922.13;7397966;19;20015;-69
2022/10/27 04:27:08;;;;;;;28.30;19.60;;;;;;;10.09;100.00;101923.00;7399091;19;20022;-69
2022/10/27 04:29:36;;;;;;;29.40;20.02;;;;;;;10.07;100.00;101923.00;7397619;19;20025;-69
2022/10/27 04:32:05;;;;;;;33.10;21.17;;;;;;;10.06;100.00;101925.63;7395514;19;20035;-70
2022/10/27 04:34:36;;;;;;;36.33;22.00;;;;;;;10.06;100.00;101923.00;7397448;19;20019;-70
2022/10/27 04:37:04;;;;;;;34.83;22.05;;;;;;;10.06;100.00;101928.22;7397901;19;20031;-69
2022/10/27 04:39:33;;;;;;;33.65;21.85;;;;;;;10.05;100.00;101927.38;7393009;19;20082;-69
2022/10/27 04:42:01;;;;;;;32.78;21.15;;;;;;;10.04;100.00;101928.25;7395636;19;20019;-68
2022/10/27 04:44:30;;;;;;;33.58;20.95;;;;;;;10.03;100.00;101928.25;7395793;19;20035;-70
2022/10/27 04:46:58;;;;;;;32.05;21.55;;;;;;;10.02;100.00;101930.00;7397226;19;20485;-68
2022/10/27 04:49:26;;;;;;;35.60;21.48;;;;;;;10.00;100.00;101925.66;7396885;19;20031;-68
2022/10/27 04:51:58;;;;;;;30.60;20.55;;;;;;;10.03;100.00;101936.13;7395062;19;20019;-67
2022/10/27 04:54:27;;;;;;;35.90;20.50;;;;;;;10.02;100.00;101935.25;7397440;19;20031;-67
2022/10/27 04:56:56;;;;;;;32.35;19.77;;;;;;;10.01;100.00;101938.75;7395912;19;20014;-70
2022/10/27 04:59:24;;;;;;;31.60;20.27;;;;;;;10.01;100.00;101944.00;7394861;19;20489;-69
2022/10/27 05:01:53;;;;;;;32.10;19.25;;;;;;;10.01;99.98;101953.59;7394646;19;20027;-68
2022/10/27 05:04:21;;;;;;;32.20;20.25;;;;;;;9.99;100.00;101955.34;7396163;19;20032;-68
2022/10/27 05:06:50;;;;;;;28.20;19.15;;;;;;;9.98;100.00;101948.34;7396013;19;20035;-67
2022/10/27 05:09:21;;;;;;;29.63;19.67;;;;;;;9.94;100.00;101956.22;7396113;19;20022;-68
2022/10/27 05:11:49;;;;;;;29.25;20.60;;;;;;;9.92;100.00;101964.94;7394046;19;20074;-67
2022/10/27 05:14:18;;;;;;;29.92;19.05;;;;;;;9.91;100.00;101964.06;7396477;19;20035;-67
2022/10/27 05:16:46;;;;;;;29.60;19.85;;;;;;;9.89;100.00;101965.81;7396467;19;20022;-67
2022/10/27 05:19:15;;;;;;;26.55;19.35;;;;;;;9.87;100.00;101970.19;7395102;19;20422;-68
2022/10/27 05:21:43;;;;;;;30.80;19.42;;;;;;;9.87;100.00;101975.44;7394485;19;20485;-68
2022/10/27 05:24:12;;;;;;;25.83;19.30;;;;;;;9.86;100.00;101970.22;7396347;19;20031;-68
2022/10/27 05:26:50;;;;;;;30.80;20.00;;;;;;;9.84;100.00;101971.94;7395389;19;20489;-69
2022/10/27 05:29:18;;;;;;;25.83;18.95;;;;;;;9.82;100.00;101979.81;7396557;19;20018;-69
2022/10/27 05:31:54;;;;;;;28.55;19.05;;;;;;;9.81;100.00;101977.16;7394075;19;20039;-68
2022/10/27 05:34:23;;;;;;;30.45;19.02;;;;;;;9.80;100.00;101978.06;7393964;19;20018;-68
2022/10/27 05:36:51;;;;;;;25.83;19.20;;;;;;;9.78;100.00;101978.03;7395770;19;20026;-69
2022/10/27 05:39:20;;;;;;;30.10;18.38;;;;;;;9.79;100.00;101992.91;7393388;19;20024;-70
2022/10/27 05:41:51;;;;;;;24.38;18.70;;;;;;;9.77;100.00;101986.78;7394681;19;20026;-69
2022/10/27 05:44:19;;;;;;;28.30;18.17;;;;;;;9.75;100.00;101989.38;7393423;19;20018;-69
2022/10/27 05:46:48;;;;;;;26.48;18.38;;;;;;;9.74;100.00;101992.00;7395180;19;20019;-69
2022/10/27 05:49:16;;;;;;;24.80;18.48;;;;;;;9.72;100.00;101996.41;7395188;19;20014;-66
2022/10/27 05:51:45;;;;;;;28.58;18.83;;;;;;;9.72;100.00;102001.63;7393120;19;20494;-69
2022/10/27 05:54:13;;;;;;;26.63;19.55;;;;;;;9.70;100.00;102001.59;7394622;19;20018;-69
2022/10/27 05:56:42;;;;;;;28.40;19.08;;;;;;;9.69;100.00;101999.00;7394328;19;20066;-67
2022/10/27 05:59:14;;;;;;;26.83;19.13;;;;;;;9.68;100.00;101998.13;7394117;19;20031;-71
2022/10/27 06:01:42;;;;;;;26.55;18.83;;;;;;;9.68;100.00;102007.72;7393296;19;20011;-68
2022/10/27 06:04:11;;;;;;;28.92;19.05;;;;;;;9.65;100.00;102002.50;7395429;19;20425;-69
2022/10/27 06:06:39;;;;;;;29.55;18.85;;;;;;;9.65;100.00;102007.72;7394345;19;20418;-70
2022/10/27 06:09:08;;;;;;;25.73;19.85;;;;;;;9.62;100.00;102003.34;7394570;19;20046;-68
2022/10/27 06:11:36;;;;;;;28.02;19.42;;;;;;;9.65;100.00;102011.22;7393342;19;20022;-69
2022/10/27 06:14:05;;;;;;;30.08;19.85;;;;;;;9.64;100.00;102005.97;7394666;19;20026;-67
2022/10/27 06:16:36;;;;;;;32.78;20.90;;;;;;;9.63;100.00;102007.72;7392698;19;20041;-67
2022/10/27 06:19:04;;;;;;;30.35;21.00;;;;;;;9.65;100.00;102012.97;7392672;19;20036;-66
2022/10/27 06:21:33;;;;;;;40.50;25.92;;;;;;;9.66;100.00;102015.59;7392660;19;20411;-68
2022/10/27 06:24:01;;;;;;;38.80;24.33;;;;;;;9.67;100.00;102014.72;7394394;19;20379;-66
2022/10/27 06:26:30;;;;;;;39.50;28.35;;;;;;;9.69;100.00;102017.34;7393962;19;20517;-68
2022/10/27 06:28:58;;;;;;;36.95;25.40;;;;;;;9.71;100.00;102023.47;7394363;19;20389;-66
2022/10/27 06:31:27;;;;;;;35.45;23.05;;;;;;;9.71;100.00;102019.09;7393796;19;20039;-67
2022/10/27 06:33:58;;;;;;;31.38;21.55;;;;;;;9.75;100.00;102027.84;7392022;19;20015;-66
2022/10/27 06:36:26;;;;;;;30.15;22.10;;;;;;;9.78;100.00;102027.84;7392676;19;20043;-66
2022/10/27 06:38:55;;;;;;;37.60;23.92;;;;;;;9.80;100.00;102015.63;7392825;19;20031;-66
2022/10/27 06:41:24;;;;;;;38.42;24.13;;;;;;;9.82;100.00;102024.38;7391348;19;20027;-66
2022/10/27 06:43:52;;;;;;;32.67;22.95;;;;;;;9.85;100.00;102023.50;7393425;19;20050;-66
2022/10/27 06:46:20;;;;;;;31.65;22.05;;;;;;;9.87;100.00;102029.59;7393343;19;20019;-66
2022/10/27 06:48:49;;;;;;;32.35;21.80;;;;;;;9.89;100.00;102026.09;7393879;19;20036;-66
2022/10/27 06:51:20;;;;;;;37.25;22.95;;;;;;;9.92;100.00;102026.13;7392577;19;20019;-66
2022/10/27 06:53:48;;;;;;;36.47;23.90;;;;;;;9.97;100.00;102025.25;7392322;19;20127;-65
2022/10/27 06:56:17;;;;;;;41.00;25.08;;;;;;;10.00;100.00;102020.03;7393110;19;20015;-65
2022/10/27 06:58:46;;;;;;;35.30;24.98;;;;;;;10.05;100.00;102023.53;7393335;19;20082;-67
2022/10/27 07:01:14;;;;;;;38.78;23.48;;;;;;;10.10;100.00;102027.03;7392305;19;20074;-66
2022/10/27 07:03:43;;;;;;;37.90;25.05;;;;;;;10.16;100.00;102027.03;7398551;19;20019;-65
2022/10/27 07:06:11;;;;;;;38.22;26.17;;;;;;;10.23;100.00;102030.53;7397871;19;20035;-67
2022/10/27 07:08:43;;;;;;;41.47;26.70;;;;;;;10.32;100.00;102024.41;7400137;19;20015;-66
2022/10/27 07:11:11;;;;;;;38.30;26.67;;;;;;;10.39;100.00;102023.56;7398534;19;20035;-66
2022/10/27 07:13:39;;;;;;;44.38;25.98;;;;;;;10.47;100.00;102026.19;7398841;19;20485;-67
2022/10/27 07:16:09;;;;;;;37.72;25.52;;;;;;;10.55;100.00;102014.81;7397046;19;20031;-65
2022/10/27 07:18:38;;;;;;;35.05;26.15;;;;;;;10.63;100.00;102021.78;7397231;19;20026;-66
2022/10/27 07:21:07;;;;;;;37.58;25.30;;;;;;;10.72;100.00;102025.25;7397689;19;20035;-66
2022/10/27 07:23:36;;;;;;;38.10;24.75;;;;;;;10.82;100.00;102027.91;7399903;19;20027;-66
2022/10/27 07:26:07;;;;;;;40.78;25.17;;;;;;;10.91;100.00;102028.72;7399941;19;20014;-67
2022/10/27 07:28:36;;;;;;;44.28;26.27;;;;;;;10.99;100.00;102033.94;7397582;19;20032;-66
2022/10/27 07:31:04;;;;;;;37.42;25.02;;;;;;;11.08;100.00;102033.03;7397826;19;20518;-66
2022/10/27 07:33:33;;;;;;;41.55;26.98;;;;;;;11.17;100.00;102046.16;7396758;19;20022;-66
2022/10/27 07:36:01;;;;;;;44.45;26.23;;;;;;;11.25;100.00;102040.88;7400095;19;20022;-69
2022/10/27 07:38:30;;;;;;;32.78;23.35;;;;;;;11.33;100.00;102048.72;7396951;19;20035;-70
2022/10/27 07:40:58;;;;;;;37.63;24.30;;;;;;;11.39;100.00;102052.19;7396710;19;20027;-70
2022/10/27 07:43:29;;;;;;;36.80;22.85;;;;;;;11.46;100.00;102055.69;7398859;19;20019;-69
2022/10/27 07:45:58;;;;;;;30.92;22.35;;;;;;;11.53;100.00;102054.78;7400375;19;20022;-69
2022/10/27 07:48:26;;;;;;;31.27;21.65;;;;;;;11.61;100.00;102056.50;7399116;19;20566;-69
2022/10/27 07:50:55;;;;;;;28.67;21.13;;;;;;;11.66;100.00;102060.81;7396760;19;20032;-69
2022/10/27 07:53:23;;;;;;;29.85;20.63;;;;;;;11.72;100.00;102060.81;7396914;19;20026;-69
2022/10/27 07:55:52;;;;;;;29.63;20.80;;;;;;;11.79;100.00;102066.91;7399355;19;20506;-69
2022/10/27 07:58:21;;;;;;;25.83;17.63;;;;;;;11.86;100.00;102060.72;7395816;19;20006;-69
2022/10/27 08:00:52;;;;;;;20.50;15.85;;;;;;;11.92;100.00;102065.09;7396695;19;20018;-69
2022/10/27 08:03:21;;;;;;;22.48;16.48;;;;;;;11.98;100.00;102066.81;7399292;19;20022;-69
2022/10/27 08:05:50;;;;;;;19.13;15.77;;;;;;;12.00;100.00;102059.81;7398553;19;20082;-69
2022/10/27 08:08:20;;;;;;;17.42;14.25;;;;;;;12.08;100.00;102065.00;7398312;19;20018;-68
2022/10/27 08:10:51;;;;;;;19.38;14.23;;;;;;;12.14;100.00;102068.47;7397110;19;20018;-69
2022/10/27 08:13:19;;;;;;;18.23;13.45;;;;;;;12.20;100.00;102062.31;7398505;19;20039;-69
2022/10/27 08:15:48;;;;;;;15.25;12.73;;;;;;;12.24;100.00;102061.38;7396109;19;20036;-69
2022/10/27 08:18:19;;;;;;;18.52;13.00;;;;;;;12.30;100.00;102063.97;7396771;19;20035;-69
2022/10/27 08:20:49;;;;;;;16.63;12.75;;;;;;;12.35;100.00;102062.16;7396057;19;20035;-74
2022/10/27 08:23:19;;;;;;;16.42;12.63;;;;;;;12.40;99.78;102064.78;7395693;19;20356;-69
2022/10/27 08:25:48;;;;;;;20.67;13.38;;;;;;;12.46;99.54;102058.56;7396479;19;20023;-69
2022/10/27 08:28:17;;;;;;;14.35;12.77;;;;;;;12.51;99.40;102067.28;7398411;19;20367;-69
2022/10/27 08:30:45;;;;;;;17.77;12.35;;;;;;;12.57;99.11;102066.38;7395646;19;20015;-70
2022/10/27 08:33:14;;;;;;;15.75;12.90;;;;;;;12.62;99.04;102062.81;7397687;19;20022;-71
2022/10/27 08:35:45;;;;;;;17.00;12.80;;;;;;;12.66;98.81;102061.91;7397279;19;20018;-70
2022/10/27 08:38:15;;;;;;;16.55;12.35;;;;;;;12.73;98.65;102065.34;7394981;19;20458;-69
2022/10/27 08:40:53;;;;;;;15.23;12.63;;;;;;;12.79;98.56;102064.41;7396166;19;20081;-69
2022/10/27 08:43:46;;;;;;;15.35;12.13;;;;;;;12.86;98.40;102074.91;7397886;19;20031;-70
2022/10/27 08:46:21;;;;;;;15.20;11.98;;;;;;;12.93;98.06;102072.16;7397740;19;20022;-69
2022/10/27 08:48:51;;;;;;;17.40;12.07;;;;;;;12.98;97.82;102068.63;7397861;19;20019;-70
2022/10/27 08:51:26;;;;;;;13.00;11.63;;;;;;;13.06;97.89;102072.94;7395245;19;20022;-70
2022/10/27 08:53:56;;;;;;;16.30;11.45;;;;;;;13.12;97.51;102064.97;7395245;19;20019;-69
2022/10/27 08:56:30;;;;;;;11.27;9.77;;;;;;;13.18;97.56;102073.66;7394832;19;20335;-70
2022/10/27 08:58:58;;;;;;;;;;;;;;;13.27;97.00;102070.06;7395897;19;20015;-70
2022/10/27 09:01:33;;;;;;;14.02;10.50;;;;;;;13.33;97.09;102072.63;7395657;19;19918;-70
2022/10/27 09:04:11;;;;;;;15.20;10.73;;;;;;;13.40;96.37;102075.22;7397007;19;20035;-71
2022/10/27 09:06:54;;;;;;;10.98;9.25;;;;;;;13.47;96.21;102072.50;7396196;19;20018;-70
2022/10/27 09:09:32;;;;;;;17.45;9.73;;;;;;;13.55;95.86;102072.38;7394183;19;20478;-70
2022/10/27 09:12:09;;;;;;;14.20;9.35;;;;;;;13.63;95.69;102074.91;7394351;19;20647;-71
2022/10/27 09:15:11;;;;;;;12.73;9.18;;;;;;;13.71;95.22;102072.16;7394683;19;20027;-70
2022/10/27 09:17:44;;;;;;;10.23;8.43;;;;;;;13.79;94.87;102073.81;7393508;19;20031;-69
2022/10/27 09:20:21;;;;;;;12.60;8.80;;;;;;;13.88;95.01;102072.81;7396771;19;20026;-68
2022/10/27 09:22:56;;;;;;;18.30;8.82;;;;;;;13.96;94.55;102080.63;7394587;19;20018;-68
2022/10/27 09:25:24;;;;;;;10.82;8.73;;;;;;;14.04;94.32;102081.38;7394971;19;20089;-69
2022/10/27 09:27:55;;;;;;;9.98;7.45;;;;;;;14.12;94.09;102082.13;7395628;19;20018;-71
2022/10/27 09:30:23;;;;;;;10.57;6.85;;;;;;;14.20;93.62;102083.78;7394118;19;20022;-70
2022/10/27 09:32:53;;;;;;;12.40;6.88;;;;;;;14.28;93.70;102084.53;7393290;19;20014;-70
2022/10/27 09:35:27;;;;;;;7.03;6.32;;;;;;;14.36;93.20;102079.16;7393417;19;20031;-69
2022/10/27 09:38:00;;;;;;;10.02;6.78;;;;;;;14.45;93.05;102078.97;7394512;19;20023;-70
2022/10/27 09:40:34;;;;;;;8.93;6.47;;;;;;;14.52;92.43;102082.38;7394820;19;20401;-70
2022/10/27 09:43:03;;;;;;;7.50;6.57;;;;;;;14.61;92.27;102079.59;7394882;19;20006;-69
2022/10/27 09:45:31;;;;;;;12.45;6.28;;;;;;;14.70;92.15;102083.84;7395459;19;20023;-70
2022/10/27 09:48:05;;;;;;;10.13;6.75;;;;;;;14.77;92.06;102075.81;7395256;19;20023;-69
2022/10/27 09:50:40;;;;;;;9.63;5.45;;;;;;;14.87;91.30;102075.66;7393219;19;20018;-70
2022/10/27 09:53:38;;;;;;;9.40;5.40;;;;;;;14.96;91.11;102071.06;7394736;19;20014;-70
2022/10/27 09:56:08;;;;;;;8.23;4.15;;;;;;;15.05;90.92;102059.44;7394994;19;20502;-69
2022/10/27 09:58:48;;;;;;;8.13;5.25;;;;;;;15.17;90.20;102062.75;7394042;19;20027;-70
2022/10/27 10:01:16;;;;;;;6.90;4.07;;;;;;;15.27;90.09;102057.22;7394690;19;20022;-70
2022/10/27 10:04:02;;;;;;;8.00;4.18;;;;;;;15.37;89.48;102057.91;7393028;19;20082;-68
2022/10/27 10:06:35;;;;;;;9.15;4.05;;;;;;;15.48;89.35;102061.22;7394175;19;20039;-70
2022/10/27 10:09:28;;;;;;;12.30;4.97;;;;;;;15.59;88.52;102058.31;7394669;19;20010;-69
2022/10/27 10:12:22;;;;;;;8.15;4.80;;;;;;;15.70;87.69;102066.03;7393751;19;20078;-69
2022/10/27 10:14:51;;;;;;;10.70;4.93;;;;;;;15.76;87.55;102067.69;7394836;19;20023;-70
2022/10/27 10:17:25;;;;;;;6.35;4.57;;;;;;;15.87;87.58;102068.34;7392738;19;20039;-68
2022/10/27 10:19:55;;;;;;;6.78;4.55;;;;;;;15.96;87.15;102067.22;7392100;19;20011;-70
2022/10/27 10:22:28;;;;;;;7.18;3.53;;;;;;;16.02;86.65;102067.09;7394271;19;20018;-70
2022/10/27 10:25:08;;;;;;;8.23;3.65;;;;;;;16.08;86.26;102072.25;7392717;19;20374;-70
2022/10/27 10:27:37;;;;;;;5.95;3.47;;;;;;;16.15;85.87;102070.34;7394636;19;20015;-67
2022/10/27 10:30:07;;;;;;;6.60;3.17;;;;;;;16.21;85.40;102069.31;7391504;19;20070;-66
2022/10/27 10:32:38;;;;;;;8.73;4.05;;;;;;;16.26;84.96;102070.06;7394048;19;20031;-67
2022/10/27 10:35:42;;;;;;;6.72;3.90;;;;;;;16.33;83.83;102063.72;7392611;19;20027;-65
2022/10/27 10:38:31;;;;;;;8.25;4.45;;;;;;;16.39;84.48;102058.28;7398271;19;20019;-67
2022/10/27 10:41:08;;;;;;;5.30;3.22;;;;;;;16.47;84.56;102059.84;7399307;19;20015;-65
2022/10/27 10:43:36;;;;;;;6.80;3.17;;;;;;;16.52;84.16;102056.19;7399146;19;20022;-67
2022/10/27 10:46:06;;;;;;;9.25;3.75;;;;;;;16.58;83.59;102057.78;7398661;19;20032;-71
2022/10/27 10:48:46;;;;;;;9.93;4.97;;;;;;;16.63;82.96;102060.31;7401389;19;20094;-69
2022/10/27 10:51:25;;;;;;;34.50;9.32;;;;;;;16.66;82.60;102055.81;7399017;19;20014;-70
2022/10/27 10:53:59;;;;;;;22.88;6.47;;;;;;;16.71;82.55;102059.22;7401733;19;20097;-70
2022/10/27 10:56:32;;;;;;;8.38;3.65;;;;;;;16.74;82.17;102056.50;7398993;19;20019;-70
2022/10/27 10:59:16;;;;;;;13.13;4.37;;;;;;;16.80;81.79;102059.88;7397648;19;20006;-70
2022/10/27 11:01:48;;;;;;;9.18;3.53;;;;;;;16.83;81.53;102057.13;7398779;19;21177;-70
2022/10/27 11:04:21;;;;;;;9.50;3.13;;;;;;;16.85;80.97;102052.69;7397748;19;20351;-68
2022/10/27 11:07:03;;;;;;;7.82;2.92;;;;;;;16.89;80.96;102051.69;7400204;19;20032;-67
2022/10/27 11:09:38;;;;;;;8.13;3.97;;;;;;;16.92;80.57;102041.00;7400001;19;20015;-69
2022/10/27 11:12:19;;;;;;;6.18;2.90;;;;;;;16.96;80.66;102037.38;7398161;19;20037;-73
2022/10/27 11:14:50;;;;;;;9.02;3.20;;;;;;;17.02;80.40;102036.31;7397913;19;20035;-70
2022/10/27 11:17:27;;;;;;;9.82;3.00;;;;;;;17.07;80.15;102039.72;7397919;19;20351;-68
2022/10/27 11:19:57;;;;;;;8.70;3.00;;;;;;;17.12;79.86;102035.16;7400247;19;20014;-68
2022/10/27 11:22:27;;;;;;;4.43;2.33;;;;;;;17.18;79.36;102037.63;7399993;19;20031;-69
2022/10/27 11:25:00;;;;;;;3.78;2.65;;;;;;;17.25;79.01;102033.03;7399814;19;20039;-69
2022/10/27 11:27:37;;;;;;;7.55;3.25;;;;;;;17.33;77.75;102036.31;7399542;19;20031;-69
2022/10/27 11:30:12;;;;;;;10.30;4.63;;;;;;;17.39;77.49;102022.88;7396684;19;20035;-70
2022/10/27 11:32:45;;;;;;;9.85;3.97;;;;;;;17.45;77.19;102028.91;7398993;19;20035;-69